Big Bear Station Historical Data
Daily Summary for February 13, 2019 Units:  Both    English   Metric
Next Day »
Daily Weekly Monthly Yearly Custom
  High: Low: Average:
Temperature: 44.1 °F /  6.7 °C 32.4 °F /  0.2 °C 37.7 °F /  3.2 °C
Dew Point: 39.4 °F /  4.1 °C -1.7 °F /  -18.7 °C 19.2 °F /  -7.1 °C
Humidity: 99% 17% 58%
Wind Speed: 7.8mph /  12.6km/h - 2.2mph /  3.5km/h
Wind Gust: -999.0mph /  -1607.7km/h - -
Wind- - SW
Pressure: 23.44 in /  793.7 hPa 23.34 in /  790.3 hPa -
Precipitation: 1.26 in /  32 mm    
Historical Graphs
 
 
Tabular Data for February 13, 2019
Time Temperature Dew Point Pressure Wind Wind Speed Wind Gust Humidity Rainfall Rate (Hourly)
00:02 35.8 °F /  2.1 °C -0.4 °F /  -18 °C 23.43in /  793.3hPa South 3.2mph /  5.1km/h -999.0mph /  -1607.7km/h 21% 0.00in /  0mm
00:17 35.4 °F /  1.9 °C 0.3 °F /  -17.6 °C 23.44in /  793.7hPa NE 7.8mph /  12.6km/h -999.0mph /  -1607.7km/h 22% 0.00in /  0mm
00:32 35.2 °F /  1.8 °C 1.1 °F /  -17.2 °C 23.43in /  793.3hPa WNW 2.7mph /  4.3km/h -999.0mph /  -1607.7km/h 23% 0.00in /  0mm
00:47 35.1 °F /  1.7 °C 1.9 °F /  -16.7 °C 23.44in /  793.7hPa Calm   -999.0mph /  -1607.7km/h 24% 0.00in /  0mm
01:02 35.1 °F /  1.7 °C 1.0 °F /  -17.2 °C 23.43in /  793.3hPa East 2.2mph /  3.5km/h -999.0mph /  -1607.7km/h 23% 0.00in /  0mm
01:18 35.2 °F /  1.8 °C 0.1 °F /  -17.7 °C 23.42in /  793hPa SSW 6.8mph /  10.9km/h -999.0mph /  -1607.7km/h 22% 0.00in /  0mm
01:33 35.4 °F /  1.9 °C 3.0 °F /  -16.1 °C 23.42in /  793hPa West 2.7mph /  4.3km/h -999.0mph /  -1607.7km/h 25% 0.00in /  0mm
01:49 35.8 °F /  2.1 °C 1.6 °F /  -16.9 °C 23.42in /  793hPa NW 3.7mph /  6km/h -999.0mph /  -1607.7km/h 23% 0.00in /  0mm
02:04 35.6 °F /  2 °C 0.4 °F /  -17.6 °C 23.41in /  792.7hPa WNW 1.7mph /  2.7km/h -999.0mph /  -1607.7km/h 22% 0.00in /  0mm
02:19 35.8 °F /  2.1 °C 0.6 °F /  -17.4 °C 23.40in /  792.3hPa NNE 3.2mph /  5.1km/h -999.0mph /  -1607.7km/h 22% 0.00in /  0mm
02:35 36.0 °F /  2.2 °C 0.8 °F /  -17.3 °C 23.40in /  792.3hPa SSW 2.2mph /  3.5km/h -999.0mph /  -1607.7km/h 22% 0.00in /  0mm
02:50 36.7 °F /  2.6 °C 1.4 °F /  -17 °C 23.39in /  792hPa SW 4.7mph /  7.6km/h -999.0mph /  -1607.7km/h 22% 0.00in /  0mm
03:05 36.9 °F /  2.7 °C 1.5 °F /  -16.9 °C 23.37in /  791.3hPa NE 4.7mph /  7.6km/h -999.0mph /  -1607.7km/h 22% 0.00in /  0mm
03:20 37.2 °F /  2.9 °C 0.8 °F /  -17.3 °C 23.37in /  791.3hPa ESE 5.3mph /  8.5km/h -999.0mph /  -1607.7km/h 21% 0.00in /  0mm
03:35 37.2 °F /  2.9 °C 1.8 °F /  -16.8 °C 23.37in /  791.3hPa South 2.7mph /  4.3km/h -999.0mph /  -1607.7km/h 22% 0.00in /  0mm
03:51 37.2 °F /  2.9 °C 1.8 °F /  -16.8 °C 23.37in /  791.3hPa SSW 3.2mph /  5.1km/h -999.0mph /  -1607.7km/h 22% 0.00in /  0mm
04:06 37.8 °F /  3.2 °C 0.3 °F /  -17.6 °C 23.37in /  791.3hPa WSW 4.7mph /  7.6km/h -999.0mph /  -1607.7km/h 20% 0.00in /  0mm
04:21 37.4 °F /  3 °C -0.1 °F /  -17.8 °C 23.37in /  791.3hPa SSW 2.7mph /  4.3km/h -999.0mph /  -1607.7km/h 20% 0.00in /  0mm
04:36 37.2 °F /  2.9 °C -0.2 °F /  -17.9 °C 23.37in /  791.3hPa South 2.7mph /  4.3km/h -999.0mph /  -1607.7km/h 20% 0.00in /  0mm
04:52 37.0 °F /  2.8 °C 0.6 °F /  -17.4 °C 23.36in /  791hPa West 4.2mph /  6.8km/h -999.0mph /  -1607.7km/h 21% 0.00in /  0mm
05:07 37.2 °F /  2.9 °C -0.2 °F /  -17.9 °C 23.37in /  791.3hPa SE 6.3mph /  10.1km/h -999.0mph /  -1607.7km/h 20% 0.00in /  0mm
05:22 36.7 °F /  2.6 °C 1.4 °F /  -17 °C 23.38in /  791.6hPa Calm   -999.0mph /  -1607.7km/h 22% 0.00in /  0mm
05:37 36.3 °F /  2.4 °C 1.0 °F /  -17.2 °C 23.36in /  791hPa South 3.2mph /  5.1km/h -999.0mph /  -1607.7km/h 22% 0.00in /  0mm
05:53 35.8 °F /  2.1 °C 2.5 °F /  -16.4 °C 23.36in /  791hPa SW 3.7mph /  6km/h -999.0mph /  -1607.7km/h 24% 0.00in /  0mm
06:08 35.4 °F /  1.9 °C 2.1 °F /  -16.6 °C 23.36in /  791hPa WSW 2.7mph /  4.3km/h -999.0mph /  -1607.7km/h 24% 0.00in /  0mm
06:23 34.9 °F /  1.6 °C 3.4 °F /  -15.9 °C 23.36in /  791hPa South 3.2mph /  5.1km/h -999.0mph /  -1607.7km/h 26% 0.00in /  0mm
06:39 34.7 °F /  1.5 °C 3.3 °F /  -15.9 °C 23.36in /  791hPa SW 4.2mph /  6.8km/h -999.0mph /  -1607.7km/h 26% 0.00in /  0mm
06:54 34.9 °F /  1.6 °C 1.7 °F /  -16.8 °C 23.36in /  791hPa SW 3.7mph /  6km/h -999.0mph /  -1607.7km/h 24% 0.00in /  0mm
07:09 35.2 °F /  1.8 °C 2.0 °F /  -16.7 °C 23.35in /  790.6hPa North 2.2mph /  3.5km/h -999.0mph /  -1607.7km/h 24% 0.00in /  0mm
07:24 36.0 °F /  2.2 °C -0.2 °F /  -17.9 °C 23.36in /  791hPa South 5.3mph /  8.5km/h -999.0mph /  -1607.7km/h 21% 0.00in /  0mm
07:39 36.9 °F /  2.7 °C -0.5 °F /  -18.1 °C 23.37in /  791.3hPa ESE 3.2mph /  5.1km/h -999.0mph /  -1607.7km/h 20% 0.00in /  0mm
07:55 36.5 °F /  2.5 °C -0.8 °F /  -18.2 °C 23.38in /  791.6hPa West 4.2mph /  6.8km/h -999.0mph /  -1607.7km/h 20% 0.00in /  0mm
08:10 36.7 °F /  2.6 °C 4.1 °F /  -15.5 °C 23.37in /  791.3hPa WSW 2.2mph /  3.5km/h -999.0mph /  -1607.7km/h 25% 0.00in /  0mm
08:25 38.3 °F /  3.5 °C -1.6 °F /  -18.7 °C 23.36in /  791hPa SSW 5.8mph /  9.3km/h -999.0mph /  -1607.7km/h 18% 0.00in /  0mm
08:40 39.6 °F /  4.2 °C -1.7 °F /  -18.7 °C 23.36in /  791hPa South 4.7mph /  7.6km/h -999.0mph /  -1607.7km/h 17% 0.00in /  0mm
08:55 40.8 °F /  4.9 °C 1.7 °F /  -16.8 °C 23.37in /  791.3hPa Calm   -999.0mph /  -1607.7km/h 19% 0.00in /  0mm
09:11 40.5 °F /  4.7 °C 3.6 °F /  -15.8 °C 23.39in /  792hPa West 6.3mph /  10.1km/h -999.0mph /  -1607.7km/h 21% 0.00in /  0mm
09:26 40.5 °F /  4.7 °C 4.6 °F /  -15.2 °C 23.39in /  792hPa WNW 1.7mph /  2.7km/h -999.0mph /  -1607.7km/h 22% 0.00in /  0mm
09:41 42.3 °F /  5.7 °C 6.1 °F /  -14.4 °C 23.38in /  791.6hPa SSW 1.1mph /  1.8km/h -999.0mph /  -1607.7km/h 22% 0.00in /  0mm
09:57 42.4 °F /  5.8 °C 1.8 °F /  -16.8 °C 23.38in /  791.6hPa NW 4.7mph /  7.6km/h -999.0mph /  -1607.7km/h 18% 0.00in /  0mm
10:12 43.2 °F /  6.2 °C 2.5 °F /  -16.4 °C 23.38in /  791.6hPa ESE 3.2mph /  5.1km/h -999.0mph /  -1607.7km/h 18% 0.00in /  0mm
10:27 43.0 °F /  6.1 °C 3.5 °F /  -15.8 °C 23.38in /  791.6hPa NNW 1.7mph /  2.7km/h -999.0mph /  -1607.7km/h 19% 0.00in /  0mm
10:42 44.1 °F /  6.7 °C 7.6 °F /  -13.6 °C 23.37in /  791.3hPa Calm   -999.0mph /  -1607.7km/h 22% 0.00in /  0mm
10:57 43.0 °F /  6.1 °C 6.7 °F /  -14.1 °C 23.37in /  791.3hPa WNW 4.2mph /  6.8km/h -999.0mph /  -1607.7km/h 22% 0.00in /  0mm
11:13 42.1 °F /  5.6 °C 9.6 °F /  -12.4 °C 23.37in /  791.3hPa NNW 3.7mph /  6km/h -999.0mph /  -1607.7km/h 26% 0.00in /  0mm
11:28 41.2 °F /  5.1 °C 11.3 °F /  -11.5 °C 23.37in /  791.3hPa ENE 4.2mph /  6.8km/h -999.0mph /  -1607.7km/h 29% 0.00in /  0mm
11:43 39.6 °F /  4.2 °C 16.1 °F /  -8.8 °C 23.36in /  791hPa NNW 3.7mph /  6km/h -999.0mph /  -1607.7km/h 38% 0.00in /  0mm
11:59 37.2 °F /  2.9 °C 20.7 °F /  -6.3 °C 23.36in /  791hPa NNE 7.3mph /  11.7km/h -999.0mph /  -1607.7km/h 51% 0.00in /  0mm
12:14 36.1 °F /  2.3 °C 25.1 °F /  -3.8 °C 23.37in /  791.3hPa WNW 4.2mph /  6.8km/h -999.0mph /  -1607.7km/h 64% 0.00in /  0mm
12:29 34.3 °F /  1.3 °C 26.9 °F /  -2.8 °C 23.36in /  791hPa NW 7.3mph /  11.7km/h -999.0mph /  -1607.7km/h 74% 0.00in /  0mm
12:44 33.1 °F /  0.6 °C 27.9 °F /  -2.3 °C 23.36in /  791hPa NNW 5.3mph /  8.5km/h -999.0mph /  -1607.7km/h 81% 0.00in /  0mm
13:00 33.4 °F /  0.8 °C 28.8 °F /  -1.8 °C 23.37in /  791.3hPa NW 4.7mph /  7.6km/h -999.0mph /  -1607.7km/h 83% 0.00in /  0mm
13:16 32.5 °F /  0.3 °C 28.5 °F /  -1.9 °C 23.35in /  790.6hPa NW 3.7mph /  6km/h -999.0mph /  -1607.7km/h 85% 0.00in /  0mm
13:31 32.4 °F /  0.2 °C 29.0 °F /  -1.7 °C 23.36in /  791hPa Calm   -999.0mph /  -1607.7km/h 87% 0.00in /  0mm
13:46 33.6 °F /  0.9 °C 30.4 °F /  -0.9 °C 23.35in /  790.6hPa Calm   -999.0mph /  -1607.7km/h 88% 0.00in /  0mm
14:01 34.2 °F /  1.2 °C 31.0 °F /  -0.6 °C 23.34in /  790.3hPa Calm   -999.0mph /  -1607.7km/h 88% 0.00in /  0mm
14:17 35.1 °F /  1.7 °C 32.2 °F /  0.1 °C 23.34in /  790.3hPa Calm   -999.0mph /  -1607.7km/h 89% 0.00in /  0mm
14:32 35.8 °F /  2.1 °C 33.4 °F /  0.8 °C 23.34in /  790.3hPa Calm   -999.0mph /  -1607.7km/h 91% 0.00in /  0mm
14:47 36.7 °F /  2.6 °C 34.3 °F /  1.3 °C 23.34in /  790.3hPa Calm   -999.0mph /  -1607.7km/h 91% 0.00in /  0mm
15:02 37.2 °F /  2.9 °C 35.4 °F /  1.9 °C 23.35in /  790.6hPa Calm   -999.0mph /  -1607.7km/h 93% 0.00in /  0mm
15:18 37.8 °F /  3.2 °C 36.0 °F /  2.2 °C 23.35in /  790.6hPa Calm   -999.0mph /  -1607.7km/h 93% 0.00in /  0mm
15:33 38.1 °F /  3.4 °C 36.3 °F /  2.4 °C 23.35in /  790.6hPa Calm   -999.0mph /  -1607.7km/h 93% 0.00in /  0mm
15:48 38.5 °F /  3.6 °C 36.9 °F /  2.7 °C 23.35in /  790.6hPa Calm   -999.0mph /  -1607.7km/h 94% 0.00in /  0mm
16:03 38.8 °F /  3.8 °C 37.2 °F /  2.9 °C 23.36in /  791hPa Calm   -999.0mph /  -1607.7km/h 94% 0.00in /  0mm
16:18 39.2 °F /  4 °C 37.6 °F /  3.1 °C 23.36in /  791hPa Calm   -999.0mph /  -1607.7km/h 94% 0.00in /  0mm
16:34 39.0 °F /  3.9 °C 37.4 °F /  3 °C 23.36in /  791hPa Calm   -999.0mph /  -1607.7km/h 94% 0.00in /  0mm
16:49 38.7 °F /  3.7 °C 37.4 °F /  3 °C 23.37in /  791.3hPa Calm   -999.0mph /  -1607.7km/h 95% 0.00in /  0mm
17:04 38.1 °F /  3.4 °C 37.1 °F /  2.8 °C 23.37in /  791.3hPa Calm   -999.0mph /  -1607.7km/h 96% 0.00in /  0mm
17:19 38.5 °F /  3.6 °C 37.5 °F /  3.1 °C 23.36in /  791hPa Calm   -999.0mph /  -1607.7km/h 96% 0.00in /  0mm
17:34 38.3 °F /  3.5 °C 37.5 °F /  3.1 °C 23.35in /  790.6hPa Calm   -999.0mph /  -1607.7km/h 97% 0.00in /  0mm
17:50 37.9 °F /  3.3 °C 37.1 °F /  2.8 °C 23.35in /  790.6hPa Calm   -999.0mph /  -1607.7km/h 97% 0.00in /  0mm
18:05 38.3 °F /  3.5 °C 37.8 °F /  3.2 °C 23.36in /  791hPa SSW 3.2mph /  5.1km/h -999.0mph /  -1607.7km/h 98% 0.00in /  0mm
18:20 39.0 °F /  3.9 °C 38.5 °F /  3.6 °C 23.35in /  790.6hPa WNW 3.7mph /  6km/h -999.0mph /  -1607.7km/h 98% 0.00in /  0mm
18:36 39.2 °F /  4 °C 38.7 °F /  3.7 °C 23.36in /  791hPa Calm   -999.0mph /  -1607.7km/h 98% 0.00in /  0mm
18:51 39.0 °F /  3.9 °C 38.5 °F /  3.6 °C 23.38in /  791.6hPa NNW 2.7mph /  4.3km/h -999.0mph /  -1607.7km/h 98% 0.00in /  0mm
19:07 38.8 °F /  3.8 °C 38.3 °F /  3.5 °C 23.38in /  791.6hPa North 1.1mph /  1.8km/h -999.0mph /  -1607.7km/h 98% 0.00in /  0mm
19:22 38.7 °F /  3.7 °C 38.2 °F /  3.4 °C 23.38in /  791.6hPa Calm   -999.0mph /  -1607.7km/h 98% 0.00in /  0mm
19:37 37.9 °F /  3.3 °C 37.4 °F /  3 °C 23.38in /  791.6hPa ESE 2.7mph /  4.3km/h -999.0mph /  -1607.7km/h 98% 0.00in /  0mm
19:52 38.5 °F /  3.6 °C 38.0 °F /  3.3 °C 23.37in /  791.3hPa Calm   -999.0mph /  -1607.7km/h 98% 0.00in /  0mm
20:08 38.7 °F /  3.7 °C 38.4 °F /  3.6 °C 23.38in /  791.6hPa Calm   -999.0mph /  -1607.7km/h 99% 0.00in /  0mm
20:23 38.1 °F /  3.4 °C 37.8 °F /  3.2 °C 23.38in /  791.6hPa Calm   -999.0mph /  -1607.7km/h 99% 0.00in /  0mm
20:38 38.3 °F /  3.5 °C 38.0 °F /  3.3 °C 23.40in /  792.3hPa Calm   -999.0mph /  -1607.7km/h 99% 0.00in /  0mm
20:53 38.7 °F /  3.7 °C 38.4 °F /  3.6 °C 23.39in /  792hPa Calm   -999.0mph /  -1607.7km/h 99% 0.00in /  0mm
21:09 38.7 °F /  3.7 °C 38.4 °F /  3.6 °C 23.38in /  791.6hPa North 1.1mph /  1.8km/h -999.0mph /  -1607.7km/h 99% 0.00in /  0mm
21:24 38.7 °F /  3.7 °C 38.4 °F /  3.6 °C 23.38in /  791.6hPa Calm   -999.0mph /  -1607.7km/h 99% 0.00in /  0mm
21:40 38.5 °F /  3.6 °C 38.2 °F /  3.4 °C 23.39in /  792hPa Calm   -999.0mph /  -1607.7km/h 99% 0.00in /  0mm
21:55 38.5 °F /  3.6 °C 38.2 °F /  3.4 °C 23.39in /  792hPa Calm   -999.0mph /  -1607.7km/h 99% 0.00in /  0mm
22:10 38.7 °F /  3.7 °C 38.4 °F /  3.6 °C 23.38in /  791.6hPa Calm   -999.0mph /  -1607.7km/h 99% 0.00in /  0mm
22:25 39.6 °F /  4.2 °C 39.3 °F /  4.1 °C 23.37in /  791.3hPa Calm   -999.0mph /  -1607.7km/h 99% 0.00in /  0mm
22:40 39.7 °F /  4.3 °C 39.4 °F /  4.1 °C 23.38in /  791.6hPa Calm   -999.0mph /  -1607.7km/h 99% 0.00in /  0mm
22:56 39.7 °F /  4.3 °C 39.4 °F /  4.1 °C 23.37in /  791.3hPa Calm   -999.0mph /  -1607.7km/h 99% 0.00in /  0mm
23:11 39.4 °F /  4.1 °C 39.1 °F /  3.9 °C 23.38in /  791.6hPa Calm   -999.0mph /  -1607.7km/h 99% 0.00in /  0mm
23:26 39.2 °F /  4 °C 38.9 °F /  3.8 °C 23.37in /  791.3hPa Calm   -999.0mph /  -1607.7km/h 99% 0.00in /  0mm
23:41 39.2 °F /  4 °C 38.9 °F /  3.8 °C 23.37in /  791.3hPa Calm   -999.0mph /  -1607.7km/h 99% 0.00in /  0mm
23:56 39.2 °F /  4 °C 38.9 °F /  3.8 °C 23.37in /  791.3hPa Calm   -999.0mph /  -1607.7km/h 99% 0.00in /  0mm
Big Bear CA Weather